Time;durP1;ratioP1;P1;durP2;ratioP2;P2;SDS_P1;SDS_P2;PMS_P1;PMS_P2;Temp;Humidity;BMP_temperature;BMP_pressure;BME280_temperature;BME280_humidity;BME280_pressure;Samples;Min_cycle;Max_cycle;Signal;HPM_P1;HPM_P2
2022/05/22 00:01:05;;;;;;;;;;;;;;;;;;5064298;28;1890;-83
2022/05/22 00:03:31;;;;;;;;;;;;;;;;;;5048349;28;1235;-84
2022/05/22 00:06:14;;;;;;;;;;;;;;;;;;5046406;28;1407;-83
2022/05/22 00:08:40;;;;;;;;;;;;;;;;;;5043555;28;1268;-84
2022/05/22 00:11:05;;;;;;;;;;;;;;;;;;5047917;28;1315;-84
2022/05/22 00:13:33;;;;;;;;;;;;;;;;;;5048407;28;1210;-83
2022/05/22 00:18:45;;;;;;;;;;;;;;;;;;5047549;28;1012;-83
2022/05/22 00:21:11;;;;;;;;;;;;;;;;;;5046997;28;2020;-84
2022/05/22 00:23:36;;;;;;;;;;;;;;;;;;5044638;28;1219;-83
2022/05/22 00:26:01;;;;;;;;;;;;;;;;;;5048404;28;1293;-84
2022/05/22 00:28:26;;;;;;;;;;;;;;;;;;5048269;28;1294;-84
2022/05/22 00:30:52;;;;;;;;;;;;;;;;;;5047262;28;1299;-84
2022/05/22 00:33:17;;;;;;;;;;;;;;;;;;5048728;28;1173;-83
2022/05/22 00:35:42;;;;;;;;;;;;;;;;;;5048313;28;1097;-84
2022/05/22 00:38:07;;;;;;;;;;;;;;;;;;5044703;28;1271;-83
2022/05/22 00:40:35;;;;;;;;;;;;;;;;;;5046536;28;1953;-84
2022/05/22 00:43:01;;;;;;;;;;;;;;;;;;5049590;28;1168;-85
2022/05/22 00:45:27;;;;;;;;;;;;;;;;;;5068057;28;1120;-83
2022/05/22 00:47:53;;;;;;;;;;;;;;;;;;5048548;28;1168;-83
2022/05/22 00:50:19;;;;;;;;;;;;;;;;;;5048767;28;1436;-84
2022/05/22 00:52:50;;;;;;;;;;;;;;;;;;5045063;28;1192;-83
2022/05/22 00:55:20;;;;;;;;;;;;;;;;;;5047681;28;1121;-82
2022/05/22 00:57:51;;;;;;;;;;;;;;;;;;5047563;28;1393;-83
2022/05/22 01:00:29;;;;;;;;;;;;;;;;;;5048252;28;1890;-83
2022/05/22 01:05:40;;;;;;;;;;;;;;;;;;5069688;28;1202;-84
2022/05/22 01:08:06;;;;;;;;;;;;;;;;;;5066448;28;1148;-83
2022/05/22 01:10:46;;;;;;;;;;;;;;;;;;5064981;28;1322;-82
2022/05/22 01:13:12;;;;;;;;;;;;;;;;;;5054389;28;1210;-83
2022/05/22 01:15:40;;;;;;;;;;;;;;;;;;5044334;28;1338;-83
2022/05/22 01:18:06;;;;;;;;;;;;;;;;;;5050178;28;1172;-83
2022/05/22 01:20:48;;;;;;;;;;;;;;;;;;5074339;28;1910;-82
2022/05/22 01:23:13;;;;;;;;;;;;;;;;;;5048168;28;1398;-84
2022/05/22 01:25:41;;;;;;;;;;;;;;;;;;5031165;28;1201;-84
2022/05/22 01:28:08;;;;;;;;;;;;;;;;;;5060740;28;1228;-83
2022/05/22 01:30:34;;;;;;;;;;;;;;;;;;5054735;28;1282;-83
2022/05/22 01:32:59;;;;;;;;;;;;;;;;;;5057498;28;1096;-83
2022/05/22 01:35:26;;;;;;;;;;;;;;;;;;5047439;28;1278;-83
2022/05/22 01:37:52;;;;;;;;;;;;;;;;;;5056365;28;1124;-83
2022/05/22 01:40:20;;;;;;;;;;;;;;;;;;5040214;28;1886;-83
2022/05/22 01:42:45;;;;;;;;;;;;;;;;;;5058597;28;1106;-82
2022/05/22 01:45:12;;;;;;;;;;;;;;;;;;5037031;28;1141;-83
2022/05/22 01:47:43;;;;;;;;;;;;;;;;;;5050650;28;1132;-82
2022/05/22 01:50:09;;;;;;;;;;;;;;;;;;5052031;28;1188;-84
2022/05/22 01:52:34;;;;;;;;;;;;;;;;;;5047539;28;1215;-83
2022/05/22 01:54:59;;;;;;;;;;;;;;;;;;5036066;28;1156;-83
2022/05/22 01:57:24;;;;;;;;;;;;;;;;;;5062959;28;1144;-83
2022/05/22 01:59:50;;;;;;;;;;;;;;;;;;5067210;28;1894;-83
2022/05/22 02:02:15;;;;;;;;;;;;;;;;;;5071466;28;1216;-83
2022/05/22 02:04:46;;;;;;;;;;;;;;;;;;5056145;28;1279;-83
2022/05/22 02:09:56;;;;;;;;;;;;;;;;;;5060374;28;1093;-84
2022/05/22 02:12:21;;;;;;;;;;;;;;;;;;5038126;28;1242;-84
2022/05/22 02:14:46;;;;;;;;;;;;;;;;;;5065248;28;1184;-84
2022/05/22 02:17:11;;;;;;;;;;;;;;;;;;5053275;28;1339;-84
2022/05/22 02:19:36;;;;;;;;;;;;;;;;;;5070030;28;2842;-84
2022/05/22 02:22:02;;;;;;;;;;;;;;;;;;5076319;28;1121;-85
2022/05/22 02:24:27;;;;;;;;;;;;;;;;;;5056095;28;1176;-84
2022/05/22 02:26:52;;;;;;;;;;;;;;;;;;5073470;28;1109;-84
2022/05/22 02:29:18;;;;;;;;;;;;;;;;;;5070491;28;1215;-84
2022/05/22 02:31:53;;;;;;;;;;;;;;;;;;5057446;28;1382;-84
2022/05/22 02:34:18;;;;;;;;;;;;;;;;;;5050789;28;1311;-84
2022/05/22 02:36:53;;;;;;;;;;;;;;;;;;5045578;28;1354;-83
2022/05/22 02:39:18;;;;;;;;;;;;;;;;;;5067059;28;1890;-83
2022/05/22 02:41:50;;;;;;;;;;;;;;;;;;5078810;28;1204;-84
2022/05/22 02:44:15;;;;;;;;;;;;;;;;;;5080892;28;1227;-84
2022/05/22 02:46:41;;;;;;;;;;;;;;;;;;5058426;28;1153;-84
2022/05/22 02:49:07;;;;;;;;;;;;;;;;;;5083117;28;1105;-84
2022/05/22 02:51:42;;;;;;;;;;;;;;;;;;5060856;28;1156;-84
2022/05/22 02:54:07;;;;;;;;;;;;;;;;;;5069273;28;1130;-84
2022/05/22 02:56:35;;;;;;;;;;;;;;;;;;5071934;28;1132;-84
2022/05/22 02:59:00;;;;;;;;;;;;;;;;;;5051556;28;1318;-83
2022/05/22 03:01:25;;;;;;;;;;;;;;;;;;5053779;28;1894;-84
2022/05/22 03:03:51;;;;;;;;;;;;;;;;;;5076778;28;1378;-84
2022/05/22 03:09:00;;;;;;;;;;;;;;;;;;5077103;28;1037;-84
2022/05/22 03:11:25;;;;;;;;;;;;;;;;;;5061776;28;1223;-84
2022/05/22 03:13:51;;;;;;;;;;;;;;;;;;5051332;28;1220;-84
2022/05/22 03:16:17;;;;;;;;;;;;;;;;;;5063511;28;1280;-84
2022/05/22 03:18:42;;;;;;;;;;;;;;;;;;5054849;28;1449;-83
2022/05/22 03:21:08;;;;;;;;;;;;;;;;;;5040388;28;1968;-83
2022/05/22 03:23:33;;;;;;;;;;;;;;;;;;5065035;28;1137;-83
2022/05/22 03:25:58;;;;;;;;;;;;;;;;;;5075015;28;1086;-83
2022/05/22 03:28:23;;;;;;;;;;;;;;;;;;5086452;28;1121;-82
2022/05/22 03:30:55;;;;;;;;;;;;;;;;;;5035698;28;1168;-83
2022/05/22 03:33:21;;;;;;;;;;;;;;;;;;5082051;28;1145;-83
2022/05/22 03:35:49;;;;;;;;;;;;;;;;;;5068939;28;1297;-84
2022/05/22 03:38:35;;;;;;;;;;;;;;;;;;5066111;28;1328;-83
2022/05/22 03:41:00;;;;;;;;;;;;;;;;;;5049531;28;1886;-83
2022/05/22 03:43:26;;;;;;;;;;;;;;;;;;5072795;28;1184;-83
2022/05/22 03:46:00;;;;;;;;;;;;;;;;;;5069320;28;1311;-83
2022/05/22 03:48:25;;;;;;;;;;;;;;;;;;5069715;28;1188;-83
2022/05/22 03:51:11;;;;;;;;;;;;;;;;;;5052207;28;1313;-83
2022/05/22 03:53:36;;;;;;;;;;;;;;;;;;5076234;28;1360;-83
2022/05/22 03:56:09;;;;;;;;;;;;;;;;;;5077791;28;1073;-82
2022/05/22 03:58:35;;;;;;;;;;;;;;;;;;5091090;28;1208;-83
2022/05/22 04:01:00;;;;;;;;;;;;;;;;;;5069103;28;1968;-83
2022/05/22 04:03:25;;;;;;;;;;;;;;;;;;5076631;28;1165;-83
2022/05/22 04:06:03;;;;;;;;;;;;;;;;;;5083492;28;1161;-84
2022/05/22 04:08:29;;;;;;;;;;;;;;;;;;5077776;28;1172;-84
2022/05/22 04:11:04;;;;;;;;;;;;;;;;;;5079275;28;1374;-83
2022/05/22 04:13:29;;;;;;;;;;;;;;;;;;5087606;28;1172;-83
2022/05/22 04:15:58;;;;;;;;;;;;;;;;;;5082597;28;1160;-84
2022/05/22 04:18:23;;;;;;;;;;;;;;;;;;5056142;28;1181;-84
2022/05/22 04:20:48;;;;;;;;;;;;;;;;;;5052755;28;1911;-84
2022/05/22 04:25:58;;;;;;;;;;;;;;;;;;5078065;28;998;-82
2022/05/22 04:28:24;;;;;;;;;;;;;;;;;;5087936;28;1215;-82
2022/05/22 04:30:50;;;;;;;;;;;;;;;;;;5102078;28;1192;-83
2022/05/22 04:33:15;;;;;;;;;;;;;;;;;;5100417;28;1155;-84
2022/05/22 04:35:42;;;;;;;;;;;;;;;;;;5092123;28;1315;-84
2022/05/22 04:38:07;;;;;;;;;;;;;;;;;;5079498;28;1049;-83
2022/05/22 04:40:32;;;;;;;;;;;;;;;;;;5090117;28;1885;-83
2022/05/22 04:42:58;;;;;;;;;;;;;;;;;;5056233;28;1168;-83
2022/05/22 04:45:23;;;;;;;;;;;;;;;;;;5063032;28;1157;-82
2022/05/22 04:47:49;;;;;;;;;;;;;;;;;;5093392;28;1223;-84
2022/05/22 04:50:15;;;;;;;;;;;;;;;;;;5081568;28;1314;-83
2022/05/22 04:52:40;;;;;;;;;;;;;;;;;;5085703;28;1220;-83
2022/05/22 04:55:07;;;;;;;;;;;;;;;;;;5090793;28;1188;-83
2022/05/22 04:57:32;;;;;;;;;;;;;;;;;;5087961;28;1342;-83
2022/05/22 05:00:00;;;;;;;;;;;;;;;;;;5091489;28;1920;-83
2022/05/22 05:02:25;;;;;;;;;;;;;;;;;;5059479;28;1560;-83
2022/05/22 05:04:54;;;;;;;;;;;;;;;;;;5069587;28;1251;-84
2022/05/22 05:07:20;;;;;;;;;;;;;;;;;;5067390;28;1266;-84
2022/05/22 05:09:45;;;;;;;;;;;;;;;;;;5090541;28;1219;-84
2022/05/22 05:12:12;;;;;;;;;;;;;;;;;;5075721;28;1168;-84
2022/05/22 05:14:37;;;;;;;;;;;;;;;;;;5088629;28;1327;-83
2022/05/22 05:17:06;;;;;;;;;;;;;;;;;;5081716;28;1132;-84
2022/05/22 05:19:31;;;;;;;;;;;;;;;;;;5067198;28;1913;-84
2022/05/22 05:22:00;;;;;;;;;;;;;;;;;;5084146;28;1153;-84
2022/05/22 05:24:25;;;;;;;;;;;;;;;;;;5048267;28;1377;-84
2022/05/22 05:26:54;;;;;;;;;;;;;;;;;;5059814;28;1292;-84
2022/05/22 05:29:19;;;;;;;;;;;;;;;;;;5050938;28;1221;-84
2022/05/22 05:31:47;;;;;;;;;;;;;;;;;;5074302;28;1230;-84
2022/05/22 05:34:13;;;;;;;;;;;;;;;;;;5076701;28;1313;-84
2022/05/22 05:36:41;;;;;;;;;;;;;;;;;;5069430;28;1215;-84
2022/05/22 05:39:07;;;;;;;;;;;;;;;;;;5087568;28;1226;-84
2022/05/22 05:41:35;;;;;;;;;;;;;;;;;;5060086;28;1886;-84
2022/05/22 05:44:06;;;;;;;;;;;;;;;;;;5051720;28;1200;-84
2022/05/22 05:46:35;;;;;;;;;;;;;;;;;;5066087;28;1340;-83
2022/05/22 05:49:04;;;;;;;;;;;;;;;;;;5058592;28;1141;-84
2022/05/22 05:51:30;;;;;;;;;;;;;;;;;;5058652;28;1339;-83
2022/05/22 05:53:55;;;;;;;;;;;;;;;;;;5072018;28;1223;-85
2022/05/22 05:56:21;;;;;;;;;;;;;;;;;;5065101;28;1108;-81
2022/05/22 05:58:46;;;;;;;;;;;;;;;;;;5078968;28;1160;-84
2022/05/22 06:01:12;;;;;;;;;;;;;;;;;;5078285;28;1977;-86
2022/05/22 06:03:38;;;;;;;;;;;;;;;;;;5054527;28;1217;-85
2022/05/22 06:06:09;;;;;;;;;;;;;;;;;;5069606;28;1152;-85
2022/05/22 06:08:35;;;;;;;;;;;;;;;;;;5078746;28;1287;-83
2022/05/22 06:11:00;;;;;;;;;;;;;;;;;;5081308;28;1338;-84
2022/05/22 06:13:26;;;;;;;;;;;;;;;;;;5083939;28;1156;-84
2022/05/22 06:15:52;;;;;;;;;;;;;;;;;;5059034;28;1251;-84
2022/05/22 06:18:18;;;;;;;;;;;;;;;;;;5063137;28;1526;-84
2022/05/22 06:20:43;;;;;;;;;;;;;;;;;;5072767;28;1914;-83
2022/05/22 06:23:09;;;;;;;;;;;;;;;;;;5060626;28;1081;-84
2022/05/22 06:25:35;;;;;;;;;;;;;;;;;;5077240;28;1032;-83
2022/05/22 06:28:01;;;;;;;;;;;;;;;;;;5056841;28;1374;-83
2022/05/22 06:30:26;;;;;;;;;;;;;;;;;;5063836;28;1341;-83
2022/05/22 06:32:52;;;;;;;;;;;;;;;;;;5069806;28;1109;-83
2022/05/22 06:35:18;;;;;;;;;;;;;;;;;;5047007;28;1261;-84
2022/05/22 06:37:43;;;;;;;;;;;;;;;;;;5064259;28;1327;-83
2022/05/22 06:40:10;;;;;;;;;;;;;;;;;;5060917;28;1902;-84
2022/05/22 06:42:40;;;;;;;;;;;;;;;;;;5052292;28;1125;-83
2022/05/22 06:45:13;;;;;;;;;;;;;;;;;;5053380;28;1192;-83
2022/05/22 06:47:39;;;;;;;;;;;;;;;;;;5054443;28;1208;-83
2022/05/22 06:50:06;;;;;;;;;;;;;;;;;;5045335;28;1226;-84
2022/05/22 06:52:33;;;;;;;;;;;;;;;;;;5060067;28;1259;-83
2022/05/22 06:54:59;;;;;;;;;;;;;;;;;;5078364;28;1303;-84
2022/05/22 06:57:24;;;;;;;;;;;;;;;;;;5056228;28;1277;-82
2022/05/22 06:59:52;;;;;;;;;;;;;;;;;;5067688;28;1909;-83
2022/05/22 07:02:17;;;;;;;;;;;;;;;;;;5058477;28;1176;-80
2022/05/22 07:04:42;;;;;;;;;;;;;;;;;;5071145;28;1286;-82
2022/05/22 07:07:17;;;;;;;;;;;;;;;;;;5074742;28;1101;-82
2022/05/22 07:09:42;;;;;;;;;;;;;;;;;;5059478;28;1120;-80
2022/05/22 07:12:18;;;;;;;;;;;;;;;;;;5073167;28;1141;-80
2022/05/22 07:14:44;;;;;;;;;;;;;;;;;;5055832;28;1302;-81
2022/05/22 07:17:13;;;;;;;;;;;;;;;;;;5063209;28;1323;-81
2022/05/22 07:19:40;;;;;;;;;;;;;;;;;;5051237;28;1946;-81
2022/05/22 07:22:06;;;;;;;;;;;;;;;;;;5054438;28;1387;-80
2022/05/22 07:24:31;;;;;;;;;;;;;;;;;;5063043;28;1137;-81
2022/05/22 07:26:57;;;;;;;;;;;;;;;;;;5072108;28;1270;-81
2022/05/22 07:29:22;;;;;;;;;;;;;;;;;;5046468;28;1300;-80
2022/05/22 07:31:48;;;;;;;;;;;;;;;;;;5047856;28;1495;-81
2022/05/22 07:34:24;;;;;;;;;;;;;;;;;;5039932;28;1207;-79
2022/05/22 07:36:53;;;;;;;;;;;;;;;;;;5071482;28;1133;-82
2022/05/22 07:39:18;;;;;;;;;;;;;;;;;;5068978;28;1917;-80
2022/05/22 07:41:43;;;;;;;;;;;;;;;;;;5047115;28;1477;-79
2022/05/22 07:44:08;;;;;;;;;;;;;;;;;;5067255;28;1223;-79
2022/05/22 07:46:34;;;;;;;;;;;;;;;;;;5082028;28;1121;-80
2022/05/22 07:48:59;;;;;;;;;;;;;;;;;;5085050;28;1164;-80
2022/05/22 07:51:26;;;;;;;;;;;;;;;;;;5049879;28;1223;-80
2022/05/22 07:53:51;;;;;;;;;;;;;;;;;;5063636;28;1259;-82
2022/05/22 07:56:23;;;;;;;;;;;;;;;;;;5064583;28;1256;-81
2022/05/22 07:58:50;;;;;;;;;;;;;;;;;;5036436;28;1580;-80
2022/05/22 08:01:19;;;;;;;;;;;;;;;;;;5054338;28;1918;-81
2022/05/22 08:03:47;;;;;;;;;;;;;;;;;;5065313;28;1156;-80
2022/05/22 08:06:12;;;;;;;;;;;;;;;;;;5042114;28;1232;-81
2022/05/22 08:08:40;;;;;;;;;;;;;;;;;;5060974;28;1144;-80
2022/05/22 08:11:06;;;;;;;;;;;;;;;;;;5070899;28;1116;-81
2022/05/22 08:13:31;;;;;;;;;;;;;;;;;;5079080;28;1185;-79
2022/05/22 08:15:56;;;;;;;;;;;;;;;;;;5072709;28;1149;-81
2022/05/22 08:18:21;;;;;;;;;;;;;;;;;;5067073;28;1145;-81
2022/05/22 08:20:49;;;;;;;;;;;;;;;;;;5062393;28;1934;-80
2022/05/22 08:23:24;;;;;;;;;;;;;;;;;;5078422;28;1173;-81
2022/05/22 08:25:51;;;;;;;;;;;;;;;;;;5077416;28;1177;-81
2022/05/22 08:28:23;;;;;;;;;;;;;;;;;;5067836;28;1196;-81
2022/05/22 08:30:48;;;;;;;;;;;;;;;;;;5068496;28;1165;-82
2022/05/22 08:33:23;;;;;;;;;;;;;;;;;;5070155;28;1232;-83
2022/05/22 08:35:48;;;;;;;;;;;;;;;;;;5071961;28;1211;-81
2022/05/22 08:38:13;;;;;;;;;;;;;;;;;;5043588;28;2163;-82
2022/05/22 08:40:47;;;;;;;;;;;;;;;;;;5086147;28;1977;-81
2022/05/22 08:43:24;;;;;;;;;;;;;;;;;;5088734;28;1162;-82
2022/05/22 08:46:02;;;;;;;;;;;;;;;;;;5088258;28;1137;-81
2022/05/22 08:48:32;;;;;;;;;;;;;;;;;;5068694;28;1275;-83
2022/05/22 08:51:04;;;;;;;;;;;;;;;;;;5088185;28;1235;-83
2022/05/22 08:53:29;;;;;;;;;;;;;;;;;;5061433;28;1132;-83
2022/05/22 08:59:07;;;;;;;;;;;;;;;;;;5087034;28;1001;-82
2022/05/22 09:01:35;;;;;;;;;;;;;;;;;;5051609;28;1957;-80
2022/05/22 09:04:13;;;;;;;;;;;;;;;;;;5072246;28;1132;-82
2022/05/22 09:06:44;;;;;;;;;;;;;;;;;;5071013;28;1125;-82
2022/05/22 09:09:10;;;;;;;;;;;;;;;;;;5067606;28;1211;-82
2022/05/22 09:11:46;;;;;;;;;;;;;;;;;;5066097;28;1133;-82
2022/05/22 09:14:18;;;;;;;;;;;;;;;;;;5067474;28;1121;-83
2022/05/22 09:16:44;;;;;;;;;;;;;;;;;;5086294;28;1017;-82
2022/05/22 09:19:12;;;;;;;;;;;;;;;;;;5071034;28;1668;-82
2022/05/22 09:21:43;;;;;;;;;;;;;;;;;;5083616;28;1926;-82
2022/05/22 09:24:17;;;;;;;;;;;;;;;;;;5088085;28;1120;-81
2022/05/22 09:26:43;;;;;;;;;;;;;;;;;;5071793;28;1116;-82
2022/05/22 09:29:27;;;;;;;;;;;;;;;;;;5057945;28;1493;-81
2022/05/22 09:31:57;;;;;;;;;;;;;;;;;;5068827;28;1306;-81
2022/05/22 09:34:33;;;;;;;;;;;;;;;;;;5067821;28;1209;-82
2022/05/22 09:37:04;;;;;;;;;;;;;;;;;;5055286;28;1207;-81
2022/05/22 09:39:48;;;;;;;;;;;;;;;;;;5084198;28;1951;-82
2022/05/22 09:42:28;;;;;;;;;;;;;;;;;;5071937;28;1152;-81
2022/05/22 09:45:00;;;;;;;;;;;;;;;;;;5067927;28;1124;-81
2022/05/22 09:47:37;;;;;;;;;;;;;;;;;;5080144;28;1109;-83
2022/05/22 09:50:16;;;;;;;;;;;;;;;;;;5069769;28;1128;-80
2022/05/22 09:53:00;;;;;;;;;;;;;;;;;;5072752;28;1145;-82
2022/05/22 09:55:31;;;;;;;;;;;;;;;;;;5085046;28;1045;-81
2022/05/22 09:58:09;;;;;;;;;;;;;;;;;;5063212;28;1274;-81
2022/05/22 10:00:44;;;;;;;;;;;;;;;;;;5083729;28;1948;-81
2022/05/22 10:03:12;;;;;;;;;;;;;;;;;;5048697;28;1852;-80
2022/05/22 10:06:16;;;;;;;;;;;;;;;;;;5049456;28;1192;-81
2022/05/22 10:08:49;;;;;;;;;;;;;;;;;;5063906;28;1196;-80
2022/05/22 10:11:28;;;;;;;;;;;;;;;;;;5081249;28;1097;-78
2022/05/22 10:13:53;;;;;;;;;;;;;;;;;;5069075;28;1236;-81
2022/05/22 10:16:19;;;;;;;;;;;;;;;;;;5078239;28;1204;-81
2022/05/22 10:18:44;;;;;;;;;;;;;;;;;;5080138;28;1216;-80
2022/05/22 10:21:42;;;;;;;;;;;;;;;;;;5046579;28;1914;-80
2022/05/22 10:24:08;;;;;;;;;;;;;;;;;;5023369;28;1535;-80
2022/05/22 10:26:57;;;;;;;;;;;;;;;;;;5056472;28;1164;-81
2022/05/22 10:29:25;;;;;;;;;;;;;;;;;;5054659;28;1285;-79
2022/05/22 10:32:07;;;;;;;;;;;;;;;;;;5079030;28;1192;-80
2022/05/22 10:34:43;;;;;;;;;;;;;;;;;;5082273;28;1259;-78
2022/05/22 10:37:14;;;;;;;;;;;;;;;;;;5075975;28;1322;-81
2022/05/22 10:39:39;;;;;;;;;;;;;;;;;;5058829;28;1885;-81
2022/05/22 10:44:55;;;;;;;;;;;;;;;;;;5084415;28;988;-82
2022/05/22 10:47:27;;;;;;;;;;;;;;;;;;5046312;28;1224;-81
2022/05/22 10:49:54;;;;;;;;;;;;;;;;;;5069938;28;1129;-83
2022/05/22 10:52:30;;;;;;;;;;;;;;;;;;5062787;28;1514;-83
2022/05/22 10:54:56;;;;;;;;;;;;;;;;;;5043605;28;1340;-74
2022/05/22 10:57:23;;;;;;;;;;;;;;;;;;5063618;28;1224;-74
2022/05/22 10:59:49;;;;;;;;;;;;;;;;;;5055434;28;1949;-76
2022/05/22 11:02:20;;;;;;;;;;;;;;;;;;5060661;28;1231;-76
2022/05/22 11:04:46;;;;;;;;;;;;;;;;;;5041344;28;1337;-74
2022/05/22 11:07:12;;;;;;;;;;;;;;;;;;5044849;28;1157;-76
2022/05/22 11:09:46;;;;;;;;;;;;;;;;;;5074256;28;1164;-75
2022/05/22 11:12:18;;;;;;;;;;;;;;;;;;5064503;28;1148;-78
2022/05/22 11:14:44;;;;;;;;;;;;;;;;;;5062034;28;1208;-74
2022/05/22 11:17:20;;;;;;;;;;;;;;;;;;5063732;28;1354;-74
2022/05/22 11:19:55;;;;;;;;;;;;;;;;;;5077464;28;1910;-74
2022/05/22 11:22:39;;;;;;;;;;;;;;;;;;5055329;28;1410;-76
2022/05/22 11:25:23;;;;;;;;;;;;;;;;;;5061413;28;1192;-77
2022/05/22 11:27:57;;;;;;;;;;;;;;;;;;5060881;28;1046;-76
2022/05/22 11:30:22;;;;;;;;;;;;;;;;;;5046253;28;1204;-77
2022/05/22 11:32:48;;;;;;;;;;;;;;;;;;5054226;28;1153;-76
2022/05/22 11:35:13;;;;;;;;;;;;;;;;;;5071438;28;1247;-79
2022/05/22 11:37:45;;;;;;;;;;;;;;;;;;5072555;28;1287;-77
2022/05/22 11:40:32;;;;;;;;;;;;;;;;;;5044755;28;1951;-77
2022/05/22 11:43:09;;;;;;;;;;;;;;;;;;5058669;28;1136;-77
2022/05/22 11:45:49;;;;;;;;;;;;;;;;;;5060082;28;1345;-78
2022/05/22 11:48:28;;;;;;;;;;;;;;;;;;5067917;28;1177;-77
2022/05/22 11:51:05;;;;;;;;;;;;;;;;;;5068291;28;1306;-77
2022/05/22 11:53:49;;;;;;;;;;;;;;;;;;5060921;28;1187;-77
2022/05/22 11:56:41;;;;;;;;;;;;;;;;;;5050221;28;1388;-76
2022/05/22 11:59:44;;;;;;;;;;;;;;;;;;5062591;28;1663;-83
2022/05/22 12:02:19;;;;;;;;;;;;;;;;;;5070722;28;1221;-84
2022/05/22 12:05:03;;;;;;;;;;;;;;;;;;5052562;28;1314;-85
2022/05/22 12:07:47;;;;;;;;;;;;;;;;;;5070869;28;1149;-87
2022/05/22 12:10:22;;;;;;;;;;;;;;;;;;5059402;28;1310;-86
2022/05/22 12:13:06;;;;;;;;;;;;;;;;;;5050385;28;1231;-87
2022/05/22 12:15:44;;;;;;;;;;;;;;;;;;5069210;28;1274;-87
2022/05/22 12:18:09;;;;;;;;;;;;;;;;;;5057514;28;1335;-86
2022/05/22 12:20:52;;;;;;;;;;;;;;;;;;5059825;28;1966;-85
2022/05/22 12:23:24;;;;;;;;;;;;;;;;;;5056567;28;1212;-84
2022/05/22 12:25:52;;;;;;;;;;;;;;;;;;5056366;28;1224;-86
2022/05/22 12:28:36;;;;;;;;;;;;;;;;;;5071699;28;1227;-85
2022/05/22 12:31:04;;;;;;;;;;;;;;;;;;5057868;28;1181;-85
2022/05/22 12:33:31;;;;;;;;;;;;;;;;;;5071056;28;1168;-85
2022/05/22 12:36:04;;;;;;;;;;;;;;;;;;5063513;28;1112;-85
2022/05/22 12:38:29;;;;;;;;;;;;;;;;;;5076466;28;1192;-84
2022/05/22 12:41:24;;;;;;;;;;;;;;;;;;5049357;28;1957;-84
2022/05/22 12:43:51;;;;;;;;;;;;;;;;;;5049976;28;1336;-83
2022/05/22 12:46:18;;;;;;;;;;;;;;;;;;5050050;28;1252;-82
2022/05/22 12:48:48;;;;;;;;;;;;;;;;;;5049599;28;1369;-83
2022/05/22 12:51:21;;;;;;;;;;;;;;;;;;5048912;28;1256;-83
2022/05/22 12:53:50;;;;;;;;;;;;;;;;;;5062686;28;1361;-83
2022/05/22 12:56:22;;;;;;;;;;;;;;;;;;5065806;28;1489;-81
2022/05/22 12:58:52;;;;;;;;;;;;;;;;;;5050614;28;1125;-83
2022/05/22 13:01:37;;;;;;;;;;;;;;;;;;5070756;28;1899;-84
2022/05/22 13:04:15;;;;;;;;;;;;;;;;;;5050342;28;1382;-86
2022/05/22 13:06:59;;;;;;;;;;;;;;;;;;5064895;28;902;-82
2022/05/22 13:09:46;;;;;;;;;;;;;;;;;;5074447;28;1419;-84
2022/05/22 13:12:21;;;;;;;;;;;;;;;;;;5065528;28;1105;-84
2022/05/22 13:14:54;;;;;;;;;;;;;;;;;;5066146;28;1231;-85
2022/05/22 13:17:37;;;;;;;;;;;;;;;;;;5063311;28;1208;-83
2022/05/22 13:20:08;;;;;;;;;;;;;;;;;;5069062;28;1961;-83
2022/05/22 13:22:38;;;;;;;;;;;;;;;;;;5060142;28;1319;-83
2022/05/22 13:25:06;;;;;;;;;;;;;;;;;;5065232;28;1345;-83
2022/05/22 13:27:31;;;;;;;;;;;;;;;;;;5062372;28;1232;-83
2022/05/22 13:30:04;;;;;;;;;;;;;;;;;;5068029;28;1168;-83
2022/05/22 13:32:41;;;;;;;;;;;;;;;;;;5060273;28;1244;-79
2022/05/22 13:35:16;;;;;;;;;;;;;;;;;;5065987;28;1206;-82
2022/05/22 13:37:47;;;;;;;;;;;;;;;;;;5067212;28;1490;-81
2022/05/22 13:40:18;;;;;;;;;;;;;;;;;;5055914;28;1949;-79
2022/05/22 13:42:44;;;;;;;;;;;;;;;;;;5067695;28;1169;-81
2022/05/22 13:45:28;;;;;;;;;;;;;;;;;;5050719;28;1354;-80
2022/05/22 13:47:54;;;;;;;;;;;;;;;;;;5057079;28;1212;-79
2022/05/22 13:53:40;;;;;;;;;;;;;;;;;;5065450;28;1137;-80
2022/05/22 13:56:05;;;;;;;;;;;;;;;;;;5066000;28;1284;-79
2022/05/22 13:58:35;;;;;;;;;;;;;;;;;;5059523;28;1235;-79
2022/05/22 14:01:10;;;;;;;;;;;;;;;;;;5088603;28;1890;-79
2022/05/22 14:03:50;;;;;;;;;;;;;;;;;;5063337;28;1354;-80
2022/05/22 14:06:18;;;;;;;;;;;;;;;;;;5067644;28;1206;-80
2022/05/22 14:08:54;;;;;;;;;;;;;;;;;;5069033;28;1057;-80
2022/05/22 14:11:23;;;;;;;;;;;;;;;;;;5070142;28;1107;-81
2022/05/22 14:13:50;;;;;;;;;;;;;;;;;;5035159;28;1263;-82
2022/05/22 14:16:20;;;;;;;;;;;;;;;;;;5048978;28;1187;-82
2022/05/22 14:18:56;;;;;;;;;;;;;;;;;;5057258;28;1172;-81
2022/05/22 14:21:21;;;;;;;;;;;;;;;;;;5032695;28;1971;-83
2022/05/22 14:26:32;;;;;;;;;;;;;;;;;;5049783;28;1033;-84
2022/05/22 14:28:58;;;;;;;;;;;;;;;;;;5050864;28;1177;-83
2022/05/22 14:31:26;;;;;;;;;;;;;;;;;;5069377;28;1156;-82
2022/05/22 14:34:11;;;;;;;;;;;;;;;;;;5067715;28;1096;-84
2022/05/22 14:36:48;;;;;;;;;;;;;;;;;;5038479;28;1327;-84
2022/05/22 14:39:15;;;;;;;;;;;;;;;;;;5050221;28;1307;-84
2022/05/22 14:41:41;;;;;;;;;;;;;;;;;;5054051;28;1914;-82
2022/05/22 14:44:07;;;;;;;;;;;;;;;;;;5062636;28;1069;-84
2022/05/22 14:47:05;;;;;;;;;;;;;;;;;;5069014;28;1058;-86
2022/05/22 14:49:33;;;;;;;;;;;;;;;;;;5043613;28;1367;-84
2022/05/22 14:52:00;;;;;;;;;;;;;;;;;;5061710;28;1097;-83
2022/05/22 14:54:28;;;;;;;;;;;;;;;;;;5067699;28;1112;-76
2022/05/22 14:57:08;;;;;;;;;;;;;;;;;;5044503;28;1057;-75
2022/05/22 14:59:39;;;;;;;;;;;;;;;;;;5050372;28;1223;-86
2022/05/22 15:02:14;;;;;;;;;;;;;;;;;;5070409;28;1364;-85
2022/05/22 15:04:40;;;;;;;;;;;;;;;;;;5064822;28;1218;-87
2022/05/22 15:07:18;;;;;;;;;;;;;;;;;;5064523;28;1502;-85
2022/05/22 15:09:50;;;;;;;;;;;;;;;;;;5081341;28;1131;-87
2022/05/22 15:12:21;;;;;;;;;;;;;;;;;;5056627;28;1244;-87
2022/05/22 15:14:51;;;;;;;;;;;;;;;;;;5069198;28;1152;-86
2022/05/22 15:17:22;;;;;;;;;;;;;;;;;;5066561;28;1243;-83
2022/05/22 15:19:49;;;;;;;;;;;;;;;;;;5057915;28;1918;-83
2022/05/22 15:25:27;;;;;;;;;;;;;;;;;;5066141;28;1037;-85
2022/05/22 15:27:59;;;;;;;;;;;;;;;;;;5060352;28;1342;-84
2022/05/22 15:30:30;;;;;;;;;;;;;;;;;;5054804;28;1109;-84
2022/05/22 15:33:10;;;;;;;;;;;;;;;;;;5060227;28;1225;-87
2022/05/22 15:35:35;;;;;;;;;;;;;;;;;;5075243;28;1132;-84
2022/05/22 15:38:01;;;;;;;;;;;;;;;;;;5084919;28;1156;-85
2022/05/22 15:40:27;;;;;;;;;;;;;;;;;;5065968;28;1949;-83
2022/05/22 15:43:03;;;;;;;;;;;;;;;;;;5076692;28;1249;-84
2022/05/22 15:45:32;;;;;;;;;;;;;;;;;;5069523;28;1295;-85
2022/05/22 15:51:09;;;;;;;;;;;;;;;;;;5072207;28;1068;-85
2022/05/22 15:53:37;;;;;;;;;;;;;;;;;;5066200;28;1311;-85
2022/05/22 15:56:02;;;;;;;;;;;;;;;;;;5075843;28;1275;-84
2022/05/22 15:58:28;;;;;;;;;;;;;;;;;;5046392;28;1242;-86
2022/05/22 16:01:02;;;;;;;;;;;;;;;;;;5049670;28;1890;-84
2022/05/22 16:03:28;;;;;;;;;;;;;;;;;;5047419;28;1257;-86
2022/05/22 16:06:05;;;;;;;;;;;;;;;;;;5053037;28;1227;-85
2022/05/22 16:08:31;;;;;;;;;;;;;;;;;;5051454;28;1183;-83
2022/05/22 16:10:57;;;;;;;;;;;;;;;;;;5081576;28;1416;-85
2022/05/22 16:13:22;;;;;;;;;;;;;;;;;;5067426;28;1148;-83
2022/05/22 16:15:49;;;;;;;;;;;;;;;;;;5067884;28;1212;-83
2022/05/22 16:18:18;;;;;;;;;;;;;;;;;;5052784;28;1308;-85
2022/05/22 16:20:43;;;;;;;;;;;;;;;;;;5064399;28;1961;-84
2022/05/22 16:23:08;;;;;;;;;;;;;;;;;;5048029;28;1176;-85
2022/05/22 16:25:34;;;;;;;;;;;;;;;;;;5054079;28;1254;-85
2022/05/22 16:28:01;;;;;;;;;;;;;;;;;;5086721;28;1191;-85
2022/05/22 16:30:27;;;;;;;;;;;;;;;;;;5052312;28;1441;-84
2022/05/22 16:32:52;;;;;;;;;;;;;;;;;;5060300;28;1121;-83
2022/05/22 16:35:23;;;;;;;;;;;;;;;;;;5054263;28;1158;-81
2022/05/22 16:37:49;;;;;;;;;;;;;;;;;;5062709;28;1211;-76
2022/05/22 16:40:18;;;;;;;;;;;;;;;;;;5059416;28;1901;-82
2022/05/22 16:42:43;;;;;;;;;;;;;;;;;;5063085;28;1341;-82
2022/05/22 16:45:08;;;;;;;;;;;;;;;;;;5078780;28;1140;-82
2022/05/22 16:53:09;;;;;;;;;;;;;;;;;;5076398;28;1453;-81
2022/05/22 16:55:39;;;;;;;;;;;;;;;;;;5077492;28;1136;-81
2022/05/22 16:58:11;;;;;;;;;;;;;;;;;;5075507;28;1314;-83
2022/05/22 17:00:38;;;;;;;;;;;;;;;;;;5074000;28;1882;-79
2022/05/22 17:03:07;;;;;;;;;;;;;;;;;;5072373;28;1195;-77
2022/05/22 17:05:34;;;;;;;;;;;;;;;;;;5051100;28;1180;-79
2022/05/22 17:08:00;;;;;;;;;;;;;;;;;;5076719;28;1192;-78
2022/05/22 17:10:27;;;;;;;;;;;;;;;;;;5057196;28;1358;-79
2022/05/22 17:12:53;;;;;;;;;;;;;;;;;;5061524;28;1168;-78
2022/05/22 17:15:18;;;;;;;;;;;;;;;;;;5061954;28;1386;-78
2022/05/22 17:17:43;;;;;;;;;;;;;;;;;;5054141;28;1062;-78
2022/05/22 17:20:12;;;;;;;;;;;;;;;;;;5058365;28;1963;-79
2022/05/22 17:22:37;;;;;;;;;;;;;;;;;;5053356;28;1149;-79
2022/05/22 17:25:18;;;;;;;;;;;;;;;;;;5052187;28;998;-80
2022/05/22 17:27:53;;;;;;;;;;;;;;;;;;5052726;28;1308;-79
2022/05/22 17:30:20;;;;;;;;;;;;;;;;;;5053677;28;1074;-80
2022/05/22 17:32:46;;;;;;;;;;;;;;;;;;5060882;28;1211;-79
2022/05/22 17:35:12;;;;;;;;;;;;;;;;;;5055243;28;1153;-80
2022/05/22 17:37:38;;;;;;;;;;;;;;;;;;5056061;28;1285;-80
2022/05/22 17:40:22;;;;;;;;;;;;;;;;;;5052319;28;1890;-78
2022/05/22 17:42:47;;;;;;;;;;;;;;;;;;5075140;28;1164;-79
2022/05/22 17:45:13;;;;;;;;;;;;;;;;;;5060850;28;1244;-78
2022/05/22 17:47:38;;;;;;;;;;;;;;;;;;5049729;28;1220;-77
2022/05/22 17:50:04;;;;;;;;;;;;;;;;;;5061567;28;1025;-76
2022/05/22 17:52:29;;;;;;;;;;;;;;;;;;5055026;28;1473;-76
2022/05/22 17:54:55;;;;;;;;;;;;;;;;;;5051187;28;1330;-79
2022/05/22 17:57:20;;;;;;;;;;;;;;;;;;5027934;28;1234;-79